Rosamond, California
Current Conditions -  °F | °C
As of 9:56 PM on Tuesday 27 Jan 2015 (Local Time) from KWJF Reporting Station
Clear Clear  
Wind Chill: 40°   Ceiling: Unl
Heat Index: 44°   Visibility: 10mi
Dew Point: 42°   Wind: 7mph
Humidity: 93%   Direction: 260°W
Pressure: 30.23"   Gusts: NA
Location:  34.86°N, 118.16°W
Report Text: KWJF 280556Z 26006KT 10SM CLR 07/06 A3023 RMK AO2 SLP244 T00670056 10139 20061 50006
Loading
Personal Weather Stations






























Interactive Weather Map New forecast layout! Learn more

10-Day Weather Forecast

Advertisements
Track Severe Weather on mobile